Flight Track Log - Related Links

Times and Time Zones

All times are in EDT time to prevent confusion due to time zone crossing. See the WJA307 flight status page for this flight to view local times or setup timezone preferences in your user account.


Time Position Orientation Groundspeed Altitude Reporting Facility
EDT Latitude Longitude Course Direction KTS MPH feet Rate Location/Type
Sun 11:50:52 AM 49.1667 -123.2333 334° Northwest 160 184 1,500  Level Vancouver Center
Sun 11:55:52 AM 49.4333 -123.4333 North 350 403 14,900 2,717 Climbing Vancouver Center
Sun 11:56:52 AM 49.5333 -123.4167 18° North 370 426 17,800 3,050 Climbing Vancouver Center
Sun 11:57:52 AM 49.6333 -123.3667 360° North 380 437 21,000 3,100 Climbing Vancouver Center
Sun 11:58:52 AM 49.7500 -123.3667 12° North 380 437 24,000 2,650 Climbing Vancouver Center
Sun 11:59:52 AM 49.8500 -123.3333 10° North 390 449 26,300 2,250 Climbing Vancouver Center
Sun 12:00:52 PM 49.9667 -123.3000 North 400 460 28,500 2,050 Climbing Vancouver Center
Sun 12:01:52 PM 50.0833 -123.2833 12° North 410 472 30,400 2,100 Climbing Vancouver Center
Sun 12:02:52 PM 50.1833 -123.2500 10° North 410 472 32,700 2,250 Climbing Vancouver Center
Sun 12:03:52 PM 50.3000 -123.2167 360° North 400 460 34,900 2,050 Climbing Vancouver Center
Sun 12:04:52 PM 50.4167 -123.2167 North 400 460 36,800 1,750 Climbing Vancouver Center
Sun 12:05:52 PM 50.5167 -123.2000 12° North 390 449 38,400 1,200 Climbing Vancouver Center
Sun 12:06:52 PM 50.6167 -123.1667 10° North 390 449 39,200 800 Climbing Vancouver Center
Sun 12:07:52 PM 50.7333 -123.1333 North 390 449 40,000 400 Climbing Vancouver Center
Sun 12:08:52 PM 50.8500 -123.1167 360° North 400 460 40,000  Level Vancouver Center
Sun 12:09:52 PM 50.9500 -123.1167 12° North 400 460 40,000  Level Vancouver Center
Sun 12:10:52 PM 51.0500 -123.0833 10° North 390 449 40,000  Level Vancouver Center
Sun 12:11:52 PM 51.1667 -123.0500 10° North 390 449 40,000  Level Vancouver Center
Sun 12:12:52 PM 51.2833 -123.0167 North 400 460 40,000  Level Vancouver Center
Sun 12:13:52 PM 51.4000 -123.0000 360° North 400 460 40,000  Level Vancouver Center
Sun 12:14:52 PM 51.5000 -123.0000 10° North 400 460 40,000  Level Vancouver Center
Sun 12:15:52 PM 51.6167 -122.9667 12° North 400 460 40,000  Level Vancouver Center
Sun 12:16:52 PM 51.7167 -122.9333 10° North 400 460 40,000 -250 Level Vancouver Center
Sun 12:17:52 PM 51.8333 -122.9000 North 400 460 39,500 -1,350 Descending Vancouver Center
Sun 12:18:52 PM 51.9500 -122.8833 North 400 460 37,300 -2,200 Descending Vancouver Center
Sun 12:19:52 PM 52.0500 -122.8667 North 390 449 35,100 -2,150 Descending Vancouver Center
Sun 12:20:52 PM 52.1500 -122.8500 12° North 380 437 33,000 -1,950 Descending Vancouver Center
Sun 12:21:52 PM 52.2500 -122.8167 12° North 370 426 31,200 -1,850 Descending Vancouver Center
Sun 12:22:52 PM 52.3500 -122.7833 360° North 360 414 29,300 -1,800 Descending Vancouver Center
Sun 12:23:52 PM 52.4500 -122.7833 11° North 350 403 27,600 -1,750 Descending Vancouver Center
Sun 12:24:52 PM 52.5500 -122.7500 14° North 340 391 25,800 -1,800 Descending Vancouver Center
Sun 12:25:52 PM 52.6333 -122.7167 360° North 340 391 24,000 -1,750 Descending Vancouver Center
Sun 12:26:52 PM 52.7333 -122.7167 North 350 403 22,300 -1,800 Descending Vancouver Center
Sun 12:27:52 PM 52.8333 -122.7000 14° North 350 403 20,400 -1,800 Descending Vancouver Center
Sun 12:28:52 PM 52.9167 -122.6667 11° North 340 391 18,700 -1,650 Descending Vancouver Center
Sun 12:29:52 PM 53.0167 -122.6333 360° North 330 380 17,100 -1,700 Descending Vancouver Center
Sun 12:30:52 PM 53.1000 -122.6333 11° North 330 380 15,300 -1,800 Descending Vancouver Center
Sun 12:31:52 PM 53.2000 -122.6000 13° North 320 368 13,500 -1,700 Descending Vancouver Center
Sun 12:32:52 PM 53.2833 -122.5667 360° North 320 368 11,900 -1,200 Descending Vancouver Center
Sun 12:33:52 PM 53.3500 -122.5667 13° North 300 345 11,100 -700 Descending Vancouver Center
Sun 12:34:52 PM 53.4333 -122.5333 343° North 260 299 10,500 -950 Descending Vancouver Center
Sun 12:35:52 PM 53.5000 -122.5667 352° North 250 288 9,200 -1,300 Descending Vancouver Center
Sun 12:36:52 PM 53.5667 -122.5833 360° North 250 288 7,900 -1,250 Descending Vancouver Center
Sun 12:37:52 PM 53.6333 -122.5833 344° North 240 276 6,700 -1,250 Descending Vancouver Center
Sun 12:38:52 PM 53.7000 -122.6167 349° North 230 265 5,400 -1,200 Descending Vancouver Center
Sun 12:39:52 PM 53.7500 -122.6333 360° North 210 242 4,300 -1,050 Descending Vancouver Center
Sun 12:40:52 PM 53.8000 -122.6333 329° Northwest 180 207 3,300 -900 Descending Vancouver Center
Sun 12:41:52 PM 53.8333 -122.6667 329° Northwest 150 173 2,500 -800 Descending Vancouver Center

Login

Don't have an account? Register now (free) for customized features, flight alerts, and more!